sensor_id;sensor_type;location;lat;lon;timestamp;P1;durP1;ratioP1;P2;durP2;ratioP2
25299;SDS011;13241;51.208;4.432;2023-11-21T00:00:37;18.42;;;8.60;;
25299;SDS011;13241;51.208;4.432;2023-11-21T00:03:04;16.52;;;8.32;;
25299;SDS011;13241;51.208;4.432;2023-11-21T00:05:33;17.85;;;8.38;;
25299;SDS011;13241;51.208;4.432;2023-11-21T00:08:02;16.92;;;8.00;;
25299;SDS011;13241;51.208;4.432;2023-11-21T00:10:29;25.90;;;9.68;;
25299;SDS011;13241;51.208;4.432;2023-11-21T00:12:56;18.50;;;8.38;;
25299;SDS011;13241;51.208;4.432;2023-11-21T00:15:24;16.38;;;9.63;;
25299;SDS011;13241;51.208;4.432;2023-11-21T00:17:52;18.50;;;9.05;;
25299;SDS011;13241;51.208;4.432;2023-11-21T00:20:20;17.63;;;7.63;;
25299;SDS011;13241;51.208;4.432;2023-11-21T00:22:48;14.15;;;8.73;;
25299;SDS011;13241;51.208;4.432;2023-11-21T00:25:15;16.45;;;8.80;;
25299;SDS011;13241;51.208;4.432;2023-11-21T00:27:44;16.23;;;7.60;;
25299;SDS011;13241;51.208;4.432;2023-11-21T00:30:11;17.92;;;8.70;;
25299;SDS011;13241;51.208;4.432;2023-11-21T00:32:39;18.38;;;9.30;;
25299;SDS011;13241;51.208;4.432;2023-11-21T00:35:06;16.25;;;8.57;;
25299;SDS011;13241;51.208;4.432;2023-11-21T00:37:33;19.27;;;9.23;;
25299;SDS011;13241;51.208;4.432;2023-11-21T00:40:01;23.48;;;9.00;;
25299;SDS011;13241;51.208;4.432;2023-11-21T00:42:33;15.30;;;8.65;;
25299;SDS011;13241;51.208;4.432;2023-11-21T00:45:01;16.83;;;8.27;;
25299;SDS011;13241;51.208;4.432;2023-11-21T00:47:30;18.92;;;8.85;;
25299;SDS011;13241;51.208;4.432;2023-11-21T00:49:57;18.15;;;8.93;;
25299;SDS011;13241;51.208;4.432;2023-11-21T00:52:24;18.40;;;9.55;;
25299;SDS011;13241;51.208;4.432;2023-11-21T00:54:52;17.23;;;8.77;;
25299;SDS011;13241;51.208;4.432;2023-11-21T00:57:21;20.77;;;8.60;;
25299;SDS011;13241;51.208;4.432;2023-11-21T00:59:48;16.35;;;8.27;;
25299;SDS011;13241;51.208;4.432;2023-11-21T01:02:16;18.73;;;9.27;;
25299;SDS011;13241;51.208;4.432;2023-11-21T01:04:43;18.33;;;8.82;;
25299;SDS011;13241;51.208;4.432;2023-11-21T01:07:10;24.00;;;9.45;;
25299;SDS011;13241;51.208;4.432;2023-11-21T01:09:38;13.80;;;7.65;;
25299;SDS011;13241;51.208;4.432;2023-11-21T01:12:05;18.17;;;9.38;;
25299;SDS011;13241;51.208;4.432;2023-11-21T01:14:33;16.02;;;9.50;;
25299;SDS011;13241;51.208;4.432;2023-11-21T01:17:00;20.42;;;9.50;;
25299;SDS011;13241;51.208;4.432;2023-11-21T01:19:28;16.00;;;9.13;;
25299;SDS011;13241;51.208;4.432;2023-11-21T01:21:56;19.48;;;9.48;;
25299;SDS011;13241;51.208;4.432;2023-11-21T01:24:24;19.98;;;8.60;;
25299;SDS011;13241;51.208;4.432;2023-11-21T01:26:51;17.67;;;8.80;;
25299;SDS011;13241;51.208;4.432;2023-11-21T01:29:18;21.25;;;9.15;;
25299;SDS011;13241;51.208;4.432;2023-11-21T01:31:46;14.45;;;8.00;;
25299;SDS011;13241;51.208;4.432;2023-11-21T01:34:13;18.55;;;9.07;;
25299;SDS011;13241;51.208;4.432;2023-11-21T01:36:40;18.02;;;8.57;;
25299;SDS011;13241;51.208;4.432;2023-11-21T01:39:08;19.10;;;9.30;;
25299;SDS011;13241;51.208;4.432;2023-11-21T01:41:39;15.30;;;8.25;;
25299;SDS011;13241;51.208;4.432;2023-11-21T01:44:06;16.70;;;8.20;;
25299;SDS011;13241;51.208;4.432;2023-11-21T01:46:35;18.27;;;8.95;;
25299;SDS011;13241;51.208;4.432;2023-11-21T01:49:04;20.92;;;9.57;;
25299;SDS011;13241;51.208;4.432;2023-11-21T01:51:32;20.02;;;10.07;;
25299;SDS011;13241;51.208;4.432;2023-11-21T01:54:02;20.63;;;9.82;;
25299;SDS011;13241;51.208;4.432;2023-11-21T01:56:42;24.17;;;9.98;;
25299;SDS011;13241;51.208;4.432;2023-11-21T01:59:09;20.25;;;9.43;;
25299;SDS011;13241;51.208;4.432;2023-11-21T02:01:37;18.50;;;8.32;;
25299;SDS011;13241;51.208;4.432;2023-11-21T02:04:06;18.02;;;10.20;;
25299;SDS011;13241;51.208;4.432;2023-11-21T02:06:34;21.00;;;8.90;;
25299;SDS011;13241;51.208;4.432;2023-11-21T02:09:02;19.48;;;9.82;;
25299;SDS011;13241;51.208;4.432;2023-11-21T02:11:31;23.90;;;9.95;;
25299;SDS011;13241;51.208;4.432;2023-11-21T02:14:01;21.23;;;9.60;;
25299;SDS011;13241;51.208;4.432;2023-11-21T02:16:28;20.27;;;9.50;;
25299;SDS011;13241;51.208;4.432;2023-11-21T02:18:58;14.13;;;7.93;;
25299;SDS011;13241;51.208;4.432;2023-11-21T02:21:25;19.85;;;9.48;;
25299;SDS011;13241;51.208;4.432;2023-11-21T02:23:53;26.48;;;8.70;;
25299;SDS011;13241;51.208;4.432;2023-11-21T02:26:21;14.13;;;7.93;;
25299;SDS011;13241;51.208;4.432;2023-11-21T02:28:48;20.10;;;9.07;;
25299;SDS011;13241;51.208;4.432;2023-11-21T02:31:16;28.05;;;9.98;;
25299;SDS011;13241;51.208;4.432;2023-11-21T02:33:45;18.40;;;9.07;;
25299;SDS011;13241;51.208;4.432;2023-11-21T02:36:12;21.38;;;8.73;;
25299;SDS011;13241;51.208;4.432;2023-11-21T02:38:39;17.17;;;8.95;;
25299;SDS011;13241;51.208;4.432;2023-11-21T02:41:07;21.38;;;8.65;;
25299;SDS011;13241;51.208;4.432;2023-11-21T02:43:34;18.30;;;8.82;;
25299;SDS011;13241;51.208;4.432;2023-11-21T02:46:02;16.90;;;9.18;;
25299;SDS011;13241;51.208;4.432;2023-11-21T02:48:29;24.33;;;9.20;;
25299;SDS011;13241;51.208;4.432;2023-11-21T02:50:57;14.05;;;7.35;;
25299;SDS011;13241;51.208;4.432;2023-11-21T02:53:24;19.58;;;9.23;;
25299;SDS011;13241;51.208;4.432;2023-11-21T02:55:52;13.95;;;7.55;;
25299;SDS011;13241;51.208;4.432;2023-11-21T02:58:19;15.02;;;7.25;;
25299;SDS011;13241;51.208;4.432;2023-11-21T03:00:46;18.92;;;7.90;;
25299;SDS011;13241;51.208;4.432;2023-11-21T03:03:14;16.33;;;7.13;;
25299;SDS011;13241;51.208;4.432;2023-11-21T03:05:41;14.60;;;8.20;;
25299;SDS011;13241;51.208;4.432;2023-11-21T03:08:09;15.77;;;7.43;;
25299;SDS011;13241;51.208;4.432;2023-11-21T03:10:36;17.15;;;7.75;;
25299;SDS011;13241;51.208;4.432;2023-11-21T03:13:03;13.07;;;7.45;;
25299;SDS011;13241;51.208;4.432;2023-11-21T03:15:31;17.88;;;8.65;;
25299;SDS011;13241;51.208;4.432;2023-11-21T03:17:59;10.80;;;6.78;;
25299;SDS011;13241;51.208;4.432;2023-11-21T03:20:26;17.55;;;7.72;;
25299;SDS011;13241;51.208;4.432;2023-11-21T03:22:53;15.18;;;7.57;;
25299;SDS011;13241;51.208;4.432;2023-11-21T03:25:21;18.88;;;8.30;;
25299;SDS011;13241;51.208;4.432;2023-11-21T03:27:50;21.58;;;9.05;;
25299;SDS011;13241;51.208;4.432;2023-11-21T03:30:17;15.68;;;7.93;;
25299;SDS011;13241;51.208;4.432;2023-11-21T03:32:44;15.55;;;7.20;;
25299;SDS011;13241;51.208;4.432;2023-11-21T03:35:13;17.15;;;7.57;;
25299;SDS011;13241;51.208;4.432;2023-11-21T03:37:41;15.30;;;7.50;;
25299;SDS011;13241;51.208;4.432;2023-11-21T03:40:10;18.00;;;7.88;;
25299;SDS011;13241;51.208;4.432;2023-11-21T03:42:39;17.77;;;7.95;;
25299;SDS011;13241;51.208;4.432;2023-11-21T03:45:06;16.88;;;7.68;;
25299;SDS011;13241;51.208;4.432;2023-11-21T03:47:34;16.50;;;8.25;;
25299;SDS011;13241;51.208;4.432;2023-11-21T03:50:01;17.15;;;7.82;;
25299;SDS011;13241;51.208;4.432;2023-11-21T03:52:29;19.80;;;8.23;;
25299;SDS011;13241;51.208;4.432;2023-11-21T03:54:59;16.83;;;8.38;;
25299;SDS011;13241;51.208;4.432;2023-11-21T03:57:27;15.90;;;8.27;;
25299;SDS011;13241;51.208;4.432;2023-11-21T03:59:54;17.10;;;7.72;;
25299;SDS011;13241;51.208;4.432;2023-11-21T04:02:21;15.55;;;7.57;;
25299;SDS011;13241;51.208;4.432;2023-11-21T04:04:51;19.25;;;8.18;;
25299;SDS011;13241;51.208;4.432;2023-11-21T04:07:19;17.48;;;6.93;;
25299;SDS011;13241;51.208;4.432;2023-11-21T04:09:47;19.30;;;7.90;;
25299;SDS011;13241;51.208;4.432;2023-11-21T04:12:14;18.90;;;7.53;;
25299;SDS011;13241;51.208;4.432;2023-11-21T04:14:41;16.75;;;7.50;;
25299;SDS011;13241;51.208;4.432;2023-11-21T04:17:09;17.08;;;7.15;;
25299;SDS011;13241;51.208;4.432;2023-11-21T04:19:36;21.17;;;8.15;;
25299;SDS011;13241;51.208;4.432;2023-11-21T04:22:04;18.05;;;7.38;;
25299;SDS011;13241;51.208;4.432;2023-11-21T04:24:31;16.05;;;8.02;;
25299;SDS011;13241;51.208;4.432;2023-11-21T04:26:59;14.27;;;7.50;;
25299;SDS011;13241;51.208;4.432;2023-11-21T04:29:26;17.85;;;8.30;;
25299;SDS011;13241;51.208;4.432;2023-11-21T04:31:53;16.95;;;8.40;;
25299;SDS011;13241;51.208;4.432;2023-11-21T04:34:21;19.65;;;8.52;;
25299;SDS011;13241;51.208;4.432;2023-11-21T04:36:49;20.55;;;7.28;;
25299;SDS011;13241;51.208;4.432;2023-11-21T04:39:16;23.58;;;8.35;;
25299;SDS011;13241;51.208;4.432;2023-11-21T04:41:43;21.05;;;8.00;;
25299;SDS011;13241;51.208;4.432;2023-11-21T04:44:11;17.25;;;7.80;;
25299;SDS011;13241;51.208;4.432;2023-11-21T04:46:38;13.93;;;8.00;;
25299;SDS011;13241;51.208;4.432;2023-11-21T04:49:05;18.98;;;8.32;;
25299;SDS011;13241;51.208;4.432;2023-11-21T04:51:32;13.10;;;7.53;;
25299;SDS011;13241;51.208;4.432;2023-11-21T04:54:01;20.70;;;7.43;;
25299;SDS011;13241;51.208;4.432;2023-11-21T04:56:36;18.10;;;8.20;;
25299;SDS011;13241;51.208;4.432;2023-11-21T04:59:03;16.70;;;7.75;;
25299;SDS011;13241;51.208;4.432;2023-11-21T05:01:31;17.42;;;7.97;;
25299;SDS011;13241;51.208;4.432;2023-11-21T05:03:58;14.40;;;7.05;;
25299;SDS011;13241;51.208;4.432;2023-11-21T05:06:25;18.17;;;8.98;;
25299;SDS011;13241;51.208;4.432;2023-11-21T05:08:53;14.85;;;8.82;;
25299;SDS011;13241;51.208;4.432;2023-11-21T05:11:25;15.82;;;8.77;;
25299;SDS011;13241;51.208;4.432;2023-11-21T05:13:52;24.88;;;13.82;;
25299;SDS011;13241;51.208;4.432;2023-11-21T05:16:21;14.55;;;8.57;;
25299;SDS011;13241;51.208;4.432;2023-11-21T05:18:49;17.33;;;8.05;;
25299;SDS011;13241;51.208;4.432;2023-11-21T05:21:16;17.13;;;8.27;;
25299;SDS011;13241;51.208;4.432;2023-11-21T05:23:47;18.63;;;7.97;;
25299;SDS011;13241;51.208;4.432;2023-11-21T05:26:14;20.38;;;9.80;;
25299;SDS011;13241;51.208;4.432;2023-11-21T05:28:41;12.43;;;7.75;;
25299;SDS011;13241;51.208;4.432;2023-11-21T05:31:09;20.85;;;9.27;;
25299;SDS011;13241;51.208;4.432;2023-11-21T05:33:42;22.25;;;9.52;;
25299;SDS011;13241;51.208;4.432;2023-11-21T05:36:09;15.40;;;7.93;;
25299;SDS011;13241;51.208;4.432;2023-11-21T05:38:37;25.35;;;8.57;;
25299;SDS011;13241;51.208;4.432;2023-11-21T05:41:04;20.38;;;8.50;;
25299;SDS011;13241;51.208;4.432;2023-11-21T05:43:31;24.42;;;8.25;;
25299;SDS011;13241;51.208;4.432;2023-11-21T05:46:01;19.52;;;8.35;;
25299;SDS011;13241;51.208;4.432;2023-11-21T05:48:28;20.98;;;9.57;;
25299;SDS011;13241;51.208;4.432;2023-11-21T05:50:56;20.48;;;8.93;;
25299;SDS011;13241;51.208;4.432;2023-11-21T05:53:23;20.05;;;9.27;;
25299;SDS011;13241;51.208;4.432;2023-11-21T05:55:50;24.17;;;9.20;;
25299;SDS011;13241;51.208;4.432;2023-11-21T05:58:18;17.45;;;9.55;;
25299;SDS011;13241;51.208;4.432;2023-11-21T06:00:45;13.48;;;8.55;;
25299;SDS011;13241;51.208;4.432;2023-11-21T06:03:13;19.02;;;8.75;;
25299;SDS011;13241;51.208;4.432;2023-11-21T06:05:40;17.38;;;8.65;;
25299;SDS011;13241;51.208;4.432;2023-11-21T06:08:08;16.73;;;8.43;;
25299;SDS011;13241;51.208;4.432;2023-11-21T06:10:35;21.08;;;9.75;;
25299;SDS011;13241;51.208;4.432;2023-11-21T06:13:02;20.33;;;8.75;;
25299;SDS011;13241;51.208;4.432;2023-11-21T06:15:32;15.88;;;8.82;;
25299;SDS011;13241;51.208;4.432;2023-11-21T06:18:00;16.08;;;8.68;;
25299;SDS011;13241;51.208;4.432;2023-11-21T06:20:28;22.95;;;9.15;;
25299;SDS011;13241;51.208;4.432;2023-11-21T06:22:55;38.13;;;10.20;;
25299;SDS011;13241;51.208;4.432;2023-11-21T06:25:23;17.23;;;8.60;;
25299;SDS011;13241;51.208;4.432;2023-11-21T06:27:50;23.08;;;9.45;;
25299;SDS011;13241;51.208;4.432;2023-11-21T06:30:20;19.92;;;8.73;;
25299;SDS011;13241;51.208;4.432;2023-11-21T06:32:48;22.23;;;9.20;;
25299;SDS011;13241;51.208;4.432;2023-11-21T06:35:16;25.08;;;9.80;;
25299;SDS011;13241;51.208;4.432;2023-11-21T06:37:45;20.63;;;9.07;;
25299;SDS011;13241;51.208;4.432;2023-11-21T06:40:20;25.33;;;10.07;;
25299;SDS011;13241;51.208;4.432;2023-11-21T06:42:48;21.20;;;9.60;;
25299;SDS011;13241;51.208;4.432;2023-11-21T06:45:17;19.05;;;9.18;;
25299;SDS011;13241;51.208;4.432;2023-11-21T06:47:44;16.20;;;9.00;;
25299;SDS011;13241;51.208;4.432;2023-11-21T06:50:12;23.55;;;10.48;;
25299;SDS011;13241;51.208;4.432;2023-11-21T06:52:40;19.23;;;9.05;;
25299;SDS011;13241;51.208;4.432;2023-11-21T06:55:07;18.38;;;8.88;;
25299;SDS011;13241;51.208;4.432;2023-11-21T06:57:35;22.20;;;10.02;;
25299;SDS011;13241;51.208;4.432;2023-11-21T07:00:03;23.35;;;9.30;;
25299;SDS011;13241;51.208;4.432;2023-11-21T07:02:31;17.88;;;8.98;;
25299;SDS011;13241;51.208;4.432;2023-11-21T07:04:58;16.92;;;7.72;;
25299;SDS011;13241;51.208;4.432;2023-11-21T07:07:27;20.85;;;9.25;;
25299;SDS011;13241;51.208;4.432;2023-11-21T07:09:54;15.52;;;7.78;;
25299;SDS011;13241;51.208;4.432;2023-11-21T07:12:21;25.77;;;9.02;;
25299;SDS011;13241;51.208;4.432;2023-11-21T07:14:52;17.85;;;8.25;;
25299;SDS011;13241;51.208;4.432;2023-11-21T07:17:19;18.45;;;8.88;;
25299;SDS011;13241;51.208;4.432;2023-11-21T07:19:50;20.75;;;8.93;;
25299;SDS011;13241;51.208;4.432;2023-11-21T07:22:18;17.38;;;7.45;;
25299;SDS011;13241;51.208;4.432;2023-11-21T07:24:48;17.85;;;8.43;;
25299;SDS011;13241;51.208;4.432;2023-11-21T07:27:18;18.00;;;8.65;;
25299;SDS011;13241;51.208;4.432;2023-11-21T07:29:45;18.42;;;8.55;;
25299;SDS011;13241;51.208;4.432;2023-11-21T07:32:14;17.15;;;7.85;;
25299;SDS011;13241;51.208;4.432;2023-11-21T07:34:42;24.02;;;8.68;;
25299;SDS011;13241;51.208;4.432;2023-11-21T07:37:10;22.02;;;8.02;;
25299;SDS011;13241;51.208;4.432;2023-11-21T07:39:37;17.38;;;10.07;;
25299;SDS011;13241;51.208;4.432;2023-11-21T07:42:08;23.20;;;8.80;;
25299;SDS011;13241;51.208;4.432;2023-11-21T07:44:37;20.30;;;9.60;;
25299;SDS011;13241;51.208;4.432;2023-11-21T07:47:04;24.50;;;9.35;;
25299;SDS011;13241;51.208;4.432;2023-11-21T07:49:32;19.58;;;9.25;;
25299;SDS011;13241;51.208;4.432;2023-11-21T07:51:59;19.60;;;8.25;;
25299;SDS011;13241;51.208;4.432;2023-11-21T07:54:26;22.70;;;8.70;;
25299;SDS011;13241;51.208;4.432;2023-11-21T07:56:54;17.00;;;8.32;;
25299;SDS011;13241;51.208;4.432;2023-11-21T07:59:21;22.67;;;8.82;;
25299;SDS011;13241;51.208;4.432;2023-11-21T08:01:48;19.90;;;8.63;;
25299;SDS011;13241;51.208;4.432;2023-11-21T08:04:16;21.52;;;8.43;;
25299;SDS011;13241;51.208;4.432;2023-11-21T08:06:43;32.38;;;10.52;;
25299;SDS011;13241;51.208;4.432;2023-11-21T08:09:11;21.80;;;9.05;;
25299;SDS011;13241;51.208;4.432;2023-11-21T08:11:38;26.55;;;9.65;;
25299;SDS011;13241;51.208;4.432;2023-11-21T08:14:06;21.23;;;9.95;;
25299;SDS011;13241;51.208;4.432;2023-11-21T08:16:33;17.88;;;7.93;;
25299;SDS011;13241;51.208;4.432;2023-11-21T08:19:01;20.02;;;9.27;;
25299;SDS011;13241;51.208;4.432;2023-11-21T08:21:29;28.02;;;8.00;;
25299;SDS011;13241;51.208;4.432;2023-11-21T08:23:56;16.67;;;8.23;;
25299;SDS011;13241;51.208;4.432;2023-11-21T08:26:23;17.92;;;9.43;;
25299;SDS011;13241;51.208;4.432;2023-11-21T08:28:51;24.55;;;8.95;;
25299;SDS011;13241;51.208;4.432;2023-11-21T08:31:26;16.60;;;8.95;;
25299;SDS011;13241;51.208;4.432;2023-11-21T08:33:53;20.63;;;8.68;;
25299;SDS011;13241;51.208;4.432;2023-11-21T08:36:22;16.63;;;8.50;;
25299;SDS011;13241;51.208;4.432;2023-11-21T08:38:50;14.80;;;8.45;;
25299;SDS011;13241;51.208;4.432;2023-11-21T08:41:21;20.88;;;9.00;;
25299;SDS011;13241;51.208;4.432;2023-11-21T08:43:52;16.13;;;7.88;;
25299;SDS011;13241;51.208;4.432;2023-11-21T08:46:21;22.03;;;8.47;;
25299;SDS011;13241;51.208;4.432;2023-11-21T08:48:49;21.33;;;8.18;;
25299;SDS011;13241;51.208;4.432;2023-11-21T08:51:18;19.15;;;8.55;;
25299;SDS011;13241;51.208;4.432;2023-11-21T08:53:46;18.20;;;7.68;;
25299;SDS011;13241;51.208;4.432;2023-11-21T08:56:14;20.95;;;6.80;;
25299;SDS011;13241;51.208;4.432;2023-11-21T08:58:41;11.15;;;5.38;;
25299;SDS011;13241;51.208;4.432;2023-11-21T09:01:08;16.15;;;7.50;;
25299;SDS011;13241;51.208;4.432;2023-11-21T09:03:36;13.35;;;6.47;;
25299;SDS011;13241;51.208;4.432;2023-11-21T09:06:04;11.73;;;6.78;;
25299;SDS011;13241;51.208;4.432;2023-11-21T09:08:32;12.07;;;5.80;;
25299;SDS011;13241;51.208;4.432;2023-11-21T09:10:59;11.25;;;5.43;;
25299;SDS011;13241;51.208;4.432;2023-11-21T09:13:27;8.38;;;4.18;;
25299;SDS011;13241;51.208;4.432;2023-11-21T09:15:56;15.45;;;4.85;;
25299;SDS011;13241;51.208;4.432;2023-11-21T09:18:23;12.02;;;5.15;;
25299;SDS011;13241;51.208;4.432;2023-11-21T09:20:50;6.47;;;4.07;;
25299;SDS011;13241;51.208;4.432;2023-11-21T09:23:18;13.18;;;5.18;;
25299;SDS011;13241;51.208;4.432;2023-11-21T09:25:45;9.25;;;3.83;;
25299;SDS011;13241;51.208;4.432;2023-11-21T09:28:15;10.70;;;4.50;;
25299;SDS011;13241;51.208;4.432;2023-11-21T09:30:43;6.85;;;3.88;;
25299;SDS011;13241;51.208;4.432;2023-11-21T09:33:11;14.20;;;4.97;;
25299;SDS011;13241;51.208;4.432;2023-11-21T09:35:38;11.70;;;5.20;;
25299;SDS011;13241;51.208;4.432;2023-11-21T09:38:05;11.68;;;6.10;;
25299;SDS011;13241;51.208;4.432;2023-11-21T09:40:37;12.10;;;5.07;;
25299;SDS011;13241;51.208;4.432;2023-11-21T09:43:06;16.00;;;6.43;;
25299;SDS011;13241;51.208;4.432;2023-11-21T09:45:37;13.32;;;5.30;;
25299;SDS011;13241;51.208;4.432;2023-11-21T09:48:05;12.98;;;4.85;;
25299;SDS011;13241;51.208;4.432;2023-11-21T09:50:33;11.80;;;6.05;;
25299;SDS011;13241;51.208;4.432;2023-11-21T09:53:04;10.55;;;4.70;;
25299;SDS011;13241;51.208;4.432;2023-11-21T09:55:38;15.30;;;5.68;;
25299;SDS011;13241;51.208;4.432;2023-11-21T09:58:07;9.15;;;4.38;;
25299;SDS011;13241;51.208;4.432;2023-11-21T10:00:41;13.43;;;5.07;;
25299;SDS011;13241;51.208;4.432;2023-11-21T10:03:09;7.60;;;4.05;;
25299;SDS011;13241;51.208;4.432;2023-11-21T10:05:37;8.50;;;4.38;;
25299;SDS011;13241;51.208;4.432;2023-11-21T10:08:08;15.35;;;5.22;;
25299;SDS011;13241;51.208;4.432;2023-11-21T10:10:36;9.38;;;4.38;;
25299;SDS011;13241;51.208;4.432;2023-11-21T10:13:06;6.60;;;4.15;;
25299;SDS011;13241;51.208;4.432;2023-11-21T10:15:34;8.13;;;4.28;;
25299;SDS011;13241;51.208;4.432;2023-11-21T10:18:05;10.57;;;3.70;;
25299;SDS011;13241;51.208;4.432;2023-11-21T10:20:33;6.60;;;4.07;;
25299;SDS011;13241;51.208;4.432;2023-11-21T10:23:00;9.38;;;4.38;;
25299;SDS011;13241;51.208;4.432;2023-11-21T10:25:32;8.27;;;3.92;;
25299;SDS011;13241;51.208;4.432;2023-11-21T10:28:00;5.35;;;3.03;;
25299;SDS011;13241;51.208;4.432;2023-11-21T10:30:34;6.03;;;3.28;;
25299;SDS011;13241;51.208;4.432;2023-11-21T10:33:04;9.93;;;3.85;;
25299;SDS011;13241;51.208;4.432;2023-11-21T10:35:44;6.32;;;3.30;;
25299;SDS011;13241;51.208;4.432;2023-11-21T10:38:21;6.53;;;3.58;;
25299;SDS011;13241;51.208;4.432;2023-11-21T10:40:53;11.88;;;4.53;;
25299;SDS011;13241;51.208;4.432;2023-11-21T10:43:24;7.30;;;3.25;;
25299;SDS011;13241;51.208;4.432;2023-11-21T10:45:51;6.22;;;3.00;;
25299;SDS011;13241;51.208;4.432;2023-11-21T10:48:19;5.53;;;3.60;;
25299;SDS011;13241;51.208;4.432;2023-11-21T10:50:48;8.65;;;3.35;;
25299;SDS011;13241;51.208;4.432;2023-11-21T10:53:15;11.10;;;3.97;;
25299;SDS011;13241;51.208;4.432;2023-11-21T10:55:42;6.90;;;2.95;;
25299;SDS011;13241;51.208;4.432;2023-11-21T10:58:11;10.20;;;2.75;;
25299;SDS011;13241;51.208;4.432;2023-11-21T11:00:40;8.85;;;3.70;;
25299;SDS011;13241;51.208;4.432;2023-11-21T11:03:09;5.80;;;2.50;;
25299;SDS011;13241;51.208;4.432;2023-11-21T11:05:43;5.03;;;2.45;;
25299;SDS011;13241;51.208;4.432;2023-11-21T11:08:21;4.50;;;2.70;;
25299;SDS011;13241;51.208;4.432;2023-11-21T11:10:54;3.30;;;2.25;;
25299;SDS011;13241;51.208;4.432;2023-11-21T11:13:21;7.00;;;2.45;;
25299;SDS011;13241;51.208;4.432;2023-11-21T11:15:50;4.78;;;2.45;;
25299;SDS011;13241;51.208;4.432;2023-11-21T11:18:18;3.63;;;2.72;;
25299;SDS011;13241;51.208;4.432;2023-11-21T11:20:47;3.00;;;2.20;;
25299;SDS011;13241;51.208;4.432;2023-11-21T11:25:53;4.18;;;2.20;;
25299;SDS011;13241;51.208;4.432;2023-11-21T11:31:13;4.68;;;2.63;;
25299;SDS011;13241;51.208;4.432;2023-11-21T11:36:16;7.85;;;2.30;;
25299;SDS011;13241;51.208;4.432;2023-11-21T11:38:47;4.93;;;2.80;;
25299;SDS011;13241;51.208;4.432;2023-11-21T11:41:25;4.97;;;2.67;;
25299;SDS011;13241;51.208;4.432;2023-11-21T11:43:57;5.03;;;2.63;;
25299;SDS011;13241;51.208;4.432;2023-11-21T11:46:43;6.53;;;2.83;;
25299;SDS011;13241;51.208;4.432;2023-11-21T11:49:28;3.92;;;2.95;;
25299;SDS011;13241;51.208;4.432;2023-11-21T11:54:42;4.53;;;2.40;;
25299;SDS011;13241;51.208;4.432;2023-11-21T11:57:10;3.40;;;2.63;;
25299;SDS011;13241;51.208;4.432;2023-11-21T12:02:26;5.95;;;2.85;;
25299;SDS011;13241;51.208;4.432;2023-11-21T12:04:55;5.05;;;2.60;;
25299;SDS011;13241;51.208;4.432;2023-11-21T12:07:23;5.38;;;2.53;;
25299;SDS011;13241;51.208;4.432;2023-11-21T12:09:51;3.72;;;2.78;;
25299;SDS011;13241;51.208;4.432;2023-11-21T12:12:18;4.15;;;2.30;;
25299;SDS011;13241;51.208;4.432;2023-11-21T12:14:49;3.53;;;2.42;;
25299;SDS011;13241;51.208;4.432;2023-11-21T12:17:16;4.90;;;2.85;;
25299;SDS011;13241;51.208;4.432;2023-11-21T12:19:43;9.07;;;3.08;;
25299;SDS011;13241;51.208;4.432;2023-11-21T12:22:11;3.78;;;2.40;;
25299;SDS011;13241;51.208;4.432;2023-11-21T12:24:38;7.40;;;2.85;;
25299;SDS011;13241;51.208;4.432;2023-11-21T12:27:06;3.90;;;2.20;;
25299;SDS011;13241;51.208;4.432;2023-11-21T12:29:33;5.70;;;2.58;;
25299;SDS011;13241;51.208;4.432;2023-11-21T12:32:00;4.00;;;2.08;;
25299;SDS011;13241;51.208;4.432;2023-11-21T12:34:28;6.00;;;2.90;;
25299;SDS011;13241;51.208;4.432;2023-11-21T12:36:55;3.90;;;2.40;;
25299;SDS011;13241;51.208;4.432;2023-11-21T12:39:23;4.05;;;2.03;;
25299;SDS011;13241;51.208;4.432;2023-11-21T12:41:50;2.20;;;1.35;;
25299;SDS011;13241;51.208;4.432;2023-11-21T12:44:17;6.13;;;2.17;;
25299;SDS011;13241;51.208;4.432;2023-11-21T12:46:44;1.92;;;1.33;;
25299;SDS011;13241;51.208;4.432;2023-11-21T12:49:12;1.88;;;1.25;;
25299;SDS011;13241;51.208;4.432;2023-11-21T12:51:46;3.03;;;1.88;;
25299;SDS011;13241;51.208;4.432;2023-11-21T12:54:14;2.20;;;1.20;;
25299;SDS011;13241;51.208;4.432;2023-11-21T12:56:44;1.80;;;1.40;;
25299;SDS011;13241;51.208;4.432;2023-11-21T12:59:13;3.25;;;1.63;;
25299;SDS011;13241;51.208;4.432;2023-11-21T13:01:42;2.63;;;1.38;;
25299;SDS011;13241;51.208;4.432;2023-11-21T13:04:10;1.88;;;1.45;;
25299;SDS011;13241;51.208;4.432;2023-11-21T13:06:37;5.60;;;1.55;;
25299;SDS011;13241;51.208;4.432;2023-11-21T13:09:07;4.07;;;1.48;;
25299;SDS011;13241;51.208;4.432;2023-11-21T13:11:44;2.85;;;1.25;;
25299;SDS011;13241;51.208;4.432;2023-11-21T13:14:11;2.65;;;1.75;;
25299;SDS011;13241;51.208;4.432;2023-11-21T13:16:39;1.33;;;1.23;;
25299;SDS011;13241;51.208;4.432;2023-11-21T13:19:12;1.98;;;1.33;;
25299;SDS011;13241;51.208;4.432;2023-11-21T13:21:39;3.40;;;1.75;;
25299;SDS011;13241;51.208;4.432;2023-11-21T13:24:06;2.08;;;1.40;;
25299;SDS011;13241;51.208;4.432;2023-11-21T13:26:34;7.13;;;1.63;;
25299;SDS011;13241;51.208;4.432;2023-11-21T13:29:02;1.80;;;1.55;;
25299;SDS011;13241;51.208;4.432;2023-11-21T13:31:31;3.10;;;1.83;;
25299;SDS011;13241;51.208;4.432;2023-11-21T13:34:03;2.72;;;1.60;;
25299;SDS011;13241;51.208;4.432;2023-11-21T13:36:35;2.58;;;1.73;;
25299;SDS011;13241;51.208;4.432;2023-11-21T13:39:02;2.08;;;1.33;;
25299;SDS011;13241;51.208;4.432;2023-11-21T13:41:41;2.70;;;1.73;;
25299;SDS011;13241;51.208;4.432;2023-11-21T13:44:09;2.65;;;1.48;;
25299;SDS011;13241;51.208;4.432;2023-11-21T13:46:52;4.45;;;1.67;;
25299;SDS011;13241;51.208;4.432;2023-11-21T13:49:19;2.33;;;1.40;;
25299;SDS011;13241;51.208;4.432;2023-11-21T13:51:47;3.20;;;2.03;;
25299;SDS011;13241;51.208;4.432;2023-11-21T13:54:18;4.28;;;2.10;;
25299;SDS011;13241;51.208;4.432;2023-11-21T13:56:50;2.72;;;1.88;;
25299;SDS011;13241;51.208;4.432;2023-11-21T13:59:17;4.18;;;2.60;;
25299;SDS011;13241;51.208;4.432;2023-11-21T14:01:49;2.28;;;1.83;;
25299;SDS011;13241;51.208;4.432;2023-11-21T14:04:26;5.30;;;2.13;;
25299;SDS011;13241;51.208;4.432;2023-11-21T14:06:56;3.55;;;1.88;;
25299;SDS011;13241;51.208;4.432;2023-11-21T14:09:27;4.25;;;2.25;;
25299;SDS011;13241;51.208;4.432;2023-11-21T14:12:02;4.97;;;2.97;;
25299;SDS011;13241;51.208;4.432;2023-11-21T14:14:33;4.78;;;2.28;;
25299;SDS011;13241;51.208;4.432;2023-11-21T14:17:00;4.88;;;2.28;;
25299;SDS011;13241;51.208;4.432;2023-11-21T14:19:33;4.65;;;2.63;;
25299;SDS011;13241;51.208;4.432;2023-11-21T14:22:03;5.32;;;2.65;;
25299;SDS011;13241;51.208;4.432;2023-11-21T14:24:30;7.55;;;2.22;;
25299;SDS011;13241;51.208;4.432;2023-11-21T14:26:59;4.85;;;2.67;;
25299;SDS011;13241;51.208;4.432;2023-11-21T14:29:26;6.35;;;2.40;;
25299;SDS011;13241;51.208;4.432;2023-11-21T14:31:55;3.08;;;1.85;;
25299;SDS011;13241;51.208;4.432;2023-11-21T14:34:24;9.05;;;2.10;;
25299;SDS011;13241;51.208;4.432;2023-11-21T14:36:53;3.55;;;1.55;;
25299;SDS011;13241;51.208;4.432;2023-11-21T14:39:21;3.20;;;1.95;;
25299;SDS011;13241;51.208;4.432;2023-11-21T14:41:54;3.38;;;1.95;;
25299;SDS011;13241;51.208;4.432;2023-11-21T14:44:23;2.30;;;1.77;;
25299;SDS011;13241;51.208;4.432;2023-11-21T14:46:55;4.95;;;2.75;;
25299;SDS011;13241;51.208;4.432;2023-11-21T14:49:25;2.67;;;1.30;;
25299;SDS011;13241;51.208;4.432;2023-11-21T14:51:55;3.50;;;1.92;;
25299;SDS011;13241;51.208;4.432;2023-11-21T14:54:30;3.25;;;2.00;;
25299;SDS011;13241;51.208;4.432;2023-11-21T14:57:09;3.22;;;2.13;;
25299;SDS011;13241;51.208;4.432;2023-11-21T14:59:43;3.95;;;1.85;;